EVT03 LIPZ-LGAV
Flight info
| Callsign | EVT03 |
|---|---|
| Flight time | 1h 46m |
| Altitude | 41000 |
| Route | ROSKA T132 ROTAR DCT LOS DCT KOFER DCT PINDO DCT SIGFO UM749 ROPOX |
| Aircraft | A333/H-SDE3GHIJ2J3J5M1RVWXY/LB2D1 |
Departure
| Time | 2026-05-04 01:09 |
|---|---|
| Airport | Venice Marco Polo Airport (LIPZ) |
Arrival
| Time | 2026-05-04 02:55 |
|---|---|
| Airport | Athens Eleftherios Venizelos International Airport (LGAV) |
| Time | Latitude | Longitude | Altitude | Speed | Heading |
|---|---|---|---|---|---|
| 2026-05-04 00:58 | 45.50316 | 12.34151 | 28 ft | 0 kts | 317° |
| 2026-05-04 00:59 | 45.50312 | 12.34156 | 28 ft | 2 kts | 317° |
| 2026-05-04 00:59 | 45.50299 | 12.34173 | 28 ft | 3 kts | 317° |
| 2026-05-04 01:00 | 45.50285 | 12.34192 | 28 ft | 3 kts | 317° |
| 2026-05-04 01:00 | 45.50270 | 12.34212 | 28 ft | 3 kts | 317° |
| 2026-05-04 01:00 | 45.50255 | 12.34232 | 28 ft | 3 kts | 317° |
| 2026-05-04 01:00 | 45.50246 | 12.34243 | 28 ft | 0 kts | 317° |
| 2026-05-04 01:01 | 45.50247 | 12.34243 | 28 ft | 0 kts | 317° |
| 2026-05-04 01:03 | 45.50250 | 12.34234 | 28 ft | 2 kts | 289° |
| 2026-05-04 01:03 | 45.50242 | 12.34210 | 28 ft | 4 kts | 229° |
| 2026-05-04 01:03 | 45.50202 | 12.34150 | 28 ft | 14 kts | 226° |
| 2026-05-04 01:04 | 45.50104 | 12.34006 | 28 ft | 27 kts | 226° |
| 2026-05-04 01:04 | 45.49997 | 12.33851 | 28 ft | 12 kts | 224° |
| 2026-05-04 01:04 | 45.49959 | 12.33803 | 28 ft | 6 kts | 212° |
| 2026-05-04 01:04 | 45.49858 | 12.33769 | 28 ft | 25 kts | 190° |
| 2026-05-04 01:05 | 45.49640 | 12.33755 | 28 ft | 32 kts | 178° |
| 2026-05-04 01:05 | 45.49489 | 12.33769 | 28 ft | 7 kts | 168° |
| 2026-05-04 01:05 | 45.49480 | 12.33772 | 28 ft | 1 kts | 161° |
| 2026-05-04 01:05 | 45.49462 | 12.33808 | 28 ft | 6 kts | 95° |
| 2026-05-04 01:06 | 45.49479 | 12.33853 | 28 ft | 0 kts | 43° |
| 2026-05-04 01:06 | 45.49480 | 12.33854 | 28 ft | 0 kts | 43° |
| 2026-05-04 01:08 | 45.49484 | 12.33860 | 28 ft | 4 kts | 43° |
| 2026-05-04 01:08 | 45.49704 | 12.34146 | 28 ft | 89 kts | 41° |
| 2026-05-04 01:09 | 45.50400 | 12.35037 | 29 ft | 179 kts | 42° |
| 2026-05-04 01:09 | 45.51472 | 12.36410 | 548 ft | 234 kts | 42° |
| 2026-05-04 01:09 | 45.52847 | 12.38159 | 1242 ft | 289 kts | 42° |
| 2026-05-04 01:09 | 45.54245 | 12.40291 | 2767 ft | 288 kts | 57° |
| 2026-05-04 01:10 | 45.54946 | 12.42890 | 4662 ft | 288 kts | 78° |
| 2026-05-04 01:10 | 45.54934 | 12.45715 | 6028 ft | 267 kts | 100° |
| 2026-05-04 01:10 | 45.54492 | 12.48085 | 6719 ft | 228 kts | 111° |
| 2026-05-04 01:10 | 45.53892 | 12.50110 | 7741 ft | 223 kts | 117° |
| 2026-05-04 01:11 | 45.53202 | 12.52079 | 8728 ft | 223 kts | 120° |
| 2026-05-04 01:11 | 45.52436 | 12.54055 | 9444 ft | 235 kts | 123° |
| 2026-05-04 01:11 | 45.51465 | 12.55978 | 9199 ft | 240 kts | 131° |
| 2026-05-04 01:11 | 45.50375 | 12.57740 | 9127 ft | 233 kts | 135° |
| 2026-05-04 01:12 | 45.49272 | 12.59385 | 9109 ft | 228 kts | 136° |
| 2026-05-04 01:12 | 45.48161 | 12.61003 | 9113 ft | 230 kts | 137° |
| 2026-05-04 01:12 | 45.47039 | 12.62630 | 9112 ft | 230 kts | 137° |
| 2026-05-04 01:12 | 45.45875 | 12.64331 | 9482 ft | 251 kts | 136° |
| 2026-05-04 01:13 | 45.44661 | 12.66127 | 10788 ft | 248 kts | 136° |
| 2026-05-04 01:13 | 45.43509 | 12.67847 | 12233 ft | 238 kts | 136° |
| 2026-05-04 01:13 | 45.42363 | 12.69554 | 13324 ft | 247 kts | 136° |
| 2026-05-04 01:13 | 45.41078 | 12.71476 | 13576 ft | 288 kts | 135° |
| 2026-05-04 01:14 | 45.39640 | 12.73643 | 14208 ft | 310 kts | 135° |
| 2026-05-04 01:14 | 45.38147 | 12.75899 | 15324 ft | 314 kts | 135° |
| 2026-05-04 01:14 | 45.36660 | 12.78154 | 16611 ft | 311 kts | 135° |
| 2026-05-04 01:14 | 45.35166 | 12.80430 | 17822 ft | 311 kts | 135° |
| 2026-05-04 01:15 | 45.33680 | 12.82697 | 18807 ft | 317 kts | 135° |
| 2026-05-04 01:15 | 45.32184 | 12.84993 | 19651 ft | 325 kts | 134° |
| 2026-05-04 01:15 | 45.30777 | 12.87577 | 20458 ft | 335 kts | 127° |
| 2026-05-04 01:15 | 45.29513 | 12.90407 | 21272 ft | 343 kts | 123° |
| 2026-05-04 01:16 | 45.28338 | 12.93391 | 22099 ft | 349 kts | 120° |
| 2026-05-04 01:16 | 45.27219 | 12.96487 | 22862 ft | 357 kts | 118° |
| 2026-05-04 01:16 | 45.26109 | 12.99771 | 23079 ft | 381 kts | 117° |
| 2026-05-04 01:16 | 45.24842 | 13.03176 | 23424 ft | 398 kts | 119° |
| 2026-05-04 01:17 | 45.23521 | 13.06688 | 23985 ft | 408 kts | 120° |
| 2026-05-04 01:17 | 45.22114 | 13.10207 | 24708 ft | 412 kts | 122° |
| 2026-05-04 01:17 | 45.20610 | 13.13660 | 25562 ft | 411 kts | 124° |
| 2026-05-04 01:17 | 45.19022 | 13.17033 | 26370 ft | 412 kts | 126° |
| 2026-05-04 01:18 | 45.17362 | 13.20356 | 26998 ft | 416 kts | 127° |
| 2026-05-04 01:18 | 45.15638 | 13.23704 | 27465 ft | 425 kts | 128° |
| 2026-05-04 01:18 | 45.13862 | 13.27097 | 27914 ft | 432 kts | 128° |
| 2026-05-04 01:18 | 45.12053 | 13.30525 | 28446 ft | 437 kts | 128° |
| 2026-05-04 01:19 | 45.10232 | 13.33980 | 29067 ft | 438 kts | 128° |
| 2026-05-04 01:19 | 45.08425 | 13.37460 | 29659 ft | 440 kts | 128° |
| 2026-05-04 01:19 | 45.06610 | 13.40979 | 30151 ft | 445 kts | 127° |
| 2026-05-04 01:19 | 45.04780 | 13.44537 | 30555 ft | 451 kts | 127° |
| 2026-05-04 01:20 | 45.02927 | 13.48149 | 30938 ft | 456 kts | 127° |
| 2026-05-04 01:20 | 45.01070 | 13.51811 | 31399 ft | 460 kts | 127° |
| 2026-05-04 01:20 | 44.99215 | 13.55496 | 31894 ft | 462 kts | 126° |
| 2026-05-04 01:20 | 44.97352 | 13.59201 | 32383 ft | 463 kts | 126° |
| 2026-05-04 01:21 | 44.95477 | 13.62912 | 32840 ft | 465 kts | 126° |
| 2026-05-04 01:21 | 44.93585 | 13.66634 | 33254 ft | 468 kts | 126° |
| 2026-05-04 01:21 | 44.91682 | 13.70380 | 33653 ft | 471 kts | 126° |
| 2026-05-04 01:21 | 44.89769 | 13.74142 | 34100 ft | 472 kts | 126° |
| 2026-05-04 01:22 | 44.87854 | 13.77900 | 34612 ft | 471 kts | 126° |
| 2026-05-04 01:22 | 44.85967 | 13.81585 | 35171 ft | 468 kts | 126° |
| 2026-05-04 01:22 | 44.84058 | 13.85283 | 35739 ft | 465 kts | 126° |
| 2026-05-04 01:22 | 44.82167 | 13.88968 | 36243 ft | 463 kts | 126° |
| 2026-05-04 01:23 | 44.80291 | 13.92657 | 36660 ft | 463 kts | 126° |
| 2026-05-04 01:23 | 44.78419 | 13.96355 | 37022 ft | 464 kts | 125° |
| 2026-05-04 01:23 | 44.76546 | 14.00061 | 37374 ft | 465 kts | 125° |
| 2026-05-04 01:23 | 44.74671 | 14.03773 | 37720 ft | 466 kts | 125° |
| 2026-05-04 01:24 | 44.72792 | 14.07491 | 38052 ft | 467 kts | 125° |
| 2026-05-04 01:24 | 44.70909 | 14.11225 | 38329 ft | 469 kts | 124° |
| 2026-05-04 01:24 | 44.69025 | 14.14980 | 38564 ft | 472 kts | 124° |
| 2026-05-04 01:24 | 44.67132 | 14.18762 | 38817 ft | 474 kts | 124° |
| 2026-05-04 01:25 | 44.65234 | 14.22546 | 39117 ft | 475 kts | 124° |
| 2026-05-04 01:25 | 44.63320 | 14.26314 | 39504 ft | 473 kts | 125° |
| 2026-05-04 01:25 | 44.61409 | 14.30052 | 39932 ft | 470 kts | 125° |
| 2026-05-04 01:26 | 44.57618 | 14.37538 | 40084 ft | 462 kts | 124° |
| 2026-05-04 01:26 | 44.55793 | 14.41177 | 40122 ft | 451 kts | 124° |
| 2026-05-04 01:26 | 44.54576 | 14.43606 | 40132 ft | 450 kts | 124° |
| 2026-05-04 01:27 | 44.50885 | 14.50756 | 40141 ft | 456 kts | 127° |
| 2026-05-04 01:27 | 44.46930 | 14.57752 | 40142 ft | 459 kts | 129° |
| 2026-05-04 01:28 | 44.42843 | 14.64635 | 40140 ft | 460 kts | 129° |
| 2026-05-04 01:28 | 44.38754 | 14.71502 | 40140 ft | 459 kts | 129° |
| 2026-05-04 01:29 | 44.34697 | 14.78411 | 40140 ft | 461 kts | 129° |
| 2026-05-04 01:29 | 44.30680 | 14.85322 | 40140 ft | 462 kts | 128° |
| 2026-05-04 01:30 | 44.26613 | 14.92305 | 40141 ft | 465 kts | 128° |
| 2026-05-04 01:30 | 44.22525 | 14.99309 | 40140 ft | 467 kts | 128° |
| 2026-05-04 01:31 | 44.18401 | 15.06350 | 40141 ft | 470 kts | 128° |
| 2026-05-04 01:31 | 44.14257 | 15.13405 | 40140 ft | 470 kts | 128° |
| 2026-05-04 01:32 | 44.10117 | 15.20442 | 40140 ft | 470 kts | 128° |
| 2026-05-04 01:32 | 44.05992 | 15.27490 | 40143 ft | 464 kts | 128° |
| 2026-05-04 01:33 | 44.01897 | 15.34255 | 40143 ft | 453 kts | 130° |
| 2026-05-04 01:33 | 43.97733 | 15.40773 | 40139 ft | 455 kts | 131° |
| 2026-05-04 01:34 | 43.93422 | 15.47374 | 40143 ft | 467 kts | 131° |
| 2026-05-04 01:34 | 43.89054 | 15.54093 | 40141 ft | 469 kts | 131° |
| 2026-05-04 01:35 | 43.84755 | 15.60793 | 40140 ft | 466 kts | 130° |
| 2026-05-04 01:35 | 43.80475 | 15.67481 | 40140 ft | 464 kts | 130° |
| 2026-05-04 01:36 | 43.76188 | 15.74179 | 40141 ft | 466 kts | 130° |
| 2026-05-04 01:36 | 43.71882 | 15.80898 | 40140 ft | 467 kts | 130° |
| 2026-05-04 01:37 | 43.67548 | 15.87609 | 40140 ft | 469 kts | 130° |
| 2026-05-04 01:37 | 43.63242 | 15.94375 | 40140 ft | 469 kts | 130° |
| 2026-05-04 01:38 | 43.58929 | 16.01148 | 40140 ft | 470 kts | 130° |
| 2026-05-04 01:38 | 43.54593 | 16.07931 | 40141 ft | 472 kts | 129° |
| 2026-05-04 01:38 | 43.52733 | 16.11633 | 40134 ft | 469 kts | 114° |
| 2026-05-04 01:39 | 43.51660 | 16.15779 | 40143 ft | 452 kts | 100° |
| 2026-05-04 01:39 | 43.50945 | 16.24352 | 40341 ft | 453 kts | 91° |
| 2026-05-04 01:39 | 43.50564 | 16.28674 | 40606 ft | 457 kts | 98° |
| 2026-05-04 01:40 | 43.49670 | 16.32869 | 40946 ft | 458 kts | 109° |
| 2026-05-04 01:40 | 43.48203 | 16.36786 | 41078 ft | 463 kts | 121° |
| 2026-05-04 01:40 | 43.46262 | 16.40330 | 41132 ft | 465 kts | 130° |
| 2026-05-04 01:41 | 43.41659 | 16.46502 | 41141 ft | 461 kts | 137° |
| 2026-05-04 01:41 | 43.36855 | 16.52345 | 41140 ft | 461 kts | 136° |
| 2026-05-04 01:42 | 43.32243 | 16.58486 | 41141 ft | 462 kts | 133° |
| 2026-05-04 01:42 | 43.27851 | 16.64920 | 41140 ft | 462 kts | 131° |
| 2026-05-04 01:43 | 43.23521 | 16.71468 | 41140 ft | 463 kts | 131° |
| 2026-05-04 01:43 | 43.19151 | 16.78027 | 41143 ft | 467 kts | 131° |
| 2026-05-04 01:44 | 43.14747 | 16.84490 | 41140 ft | 467 kts | 131° |
| 2026-05-04 01:44 | 43.10328 | 16.90986 | 41140 ft | 467 kts | 131° |
| 2026-05-04 01:45 | 43.05925 | 16.97529 | 41143 ft | 468 kts | 131° |
| 2026-05-04 01:45 | 42.99331 | 17.07246 | 41143 ft | 455 kts | 131° |
| 2026-05-04 01:46 | 42.95059 | 17.13585 | 41145 ft | 455 kts | 131° |
| 2026-05-04 01:46 | 42.90748 | 17.19989 | 41150 ft | 461 kts | 131° |
| 2026-05-04 01:47 | 42.86382 | 17.26445 | 41152 ft | 464 kts | 131° |
| 2026-05-04 01:47 | 42.82002 | 17.32912 | 41153 ft | 465 kts | 130° |
| 2026-05-04 01:48 | 42.77648 | 17.39315 | 41151 ft | 450 kts | 131° |
| 2026-05-04 01:48 | 42.73385 | 17.45653 | 41158 ft | 460 kts | 130° |
| 2026-05-04 01:49 | 42.69024 | 17.52174 | 41166 ft | 471 kts | 130° |
| 2026-05-04 01:49 | 42.64596 | 17.58773 | 41166 ft | 471 kts | 130° |
| 2026-05-04 01:50 | 42.60190 | 17.65325 | 41167 ft | 468 kts | 130° |
| 2026-05-04 01:50 | 42.55802 | 17.71865 | 41169 ft | 470 kts | 130° |
| 2026-05-04 01:51 | 42.51394 | 17.78438 | 41168 ft | 474 kts | 129° |
| 2026-05-04 01:51 | 42.46913 | 17.85080 | 41171 ft | 480 kts | 130° |
| 2026-05-04 01:52 | 42.42474 | 17.91640 | 41166 ft | 461 kts | 129° |
| 2026-05-04 01:52 | 42.38180 | 17.98077 | 41170 ft | 463 kts | 129° |
| 2026-05-04 01:53 | 42.33842 | 18.04629 | 41171 ft | 472 kts | 129° |
| 2026-05-04 01:53 | 42.29383 | 18.11278 | 41172 ft | 482 kts | 129° |
| 2026-05-04 01:54 | 42.24902 | 18.17979 | 41169 ft | 478 kts | 129° |
| 2026-05-04 01:54 | 42.20470 | 18.24653 | 41169 ft | 478 kts | 129° |
| 2026-05-04 01:55 | 42.16070 | 18.31270 | 41169 ft | 476 kts | 129° |
| 2026-05-04 01:55 | 42.11641 | 18.37920 | 41170 ft | 478 kts | 129° |
| 2026-05-04 01:56 | 42.07201 | 18.44614 | 41170 ft | 480 kts | 129° |
| 2026-05-04 01:56 | 42.02738 | 18.51330 | 41170 ft | 482 kts | 129° |
| 2026-05-04 01:57 | 41.98284 | 18.58046 | 41169 ft | 481 kts | 129° |
| 2026-05-04 01:57 | 41.93831 | 18.64744 | 41170 ft | 480 kts | 129° |
| 2026-05-04 01:58 | 41.89426 | 18.71476 | 41172 ft | 476 kts | 127° |
| 2026-05-04 01:58 | 41.85271 | 18.78267 | 41168 ft | 469 kts | 126° |
| 2026-05-04 01:59 | 41.81153 | 18.85088 | 41163 ft | 473 kts | 126° |
| 2026-05-04 01:59 | 41.76983 | 18.91936 | 41162 ft | 475 kts | 126° |
| 2026-05-04 02:00 | 41.72793 | 18.98793 | 41163 ft | 477 kts | 126° |
| 2026-05-04 02:00 | 41.68516 | 19.05686 | 41146 ft | 485 kts | 127° |
| 2026-05-04 02:01 | 41.64200 | 19.12649 | 41132 ft | 486 kts | 126° |
| 2026-05-04 02:01 | 41.59924 | 19.19635 | 41120 ft | 484 kts | 126° |
| 2026-05-04 02:02 | 41.55678 | 19.26590 | 41108 ft | 482 kts | 126° |
| 2026-05-04 02:02 | 41.51436 | 19.33506 | 41105 ft | 479 kts | 126° |
| 2026-05-04 02:03 | 41.47226 | 19.40354 | 41093 ft | 477 kts | 126° |
| 2026-05-04 02:03 | 41.42990 | 19.47153 | 41092 ft | 477 kts | 127° |
| 2026-05-04 02:04 | 41.38712 | 19.53933 | 41085 ft | 478 kts | 127° |
| 2026-05-04 02:04 | 41.34481 | 19.60612 | 41087 ft | 469 kts | 127° |
| 2026-05-04 02:05 | 41.30253 | 19.67267 | 41090 ft | 473 kts | 127° |
| 2026-05-04 02:05 | 41.25996 | 19.73975 | 41114 ft | 475 kts | 127° |
| 2026-05-04 02:06 | 41.21739 | 19.80682 | 41118 ft | 475 kts | 127° |
| 2026-05-04 02:06 | 41.17469 | 19.87429 | 41103 ft | 479 kts | 127° |
| 2026-05-04 02:07 | 41.13181 | 19.94217 | 41112 ft | 479 kts | 127° |
| 2026-05-04 02:07 | 41.08929 | 20.00946 | 41201 ft | 476 kts | 127° |
| 2026-05-04 02:08 | 41.04673 | 20.07692 | 41210 ft | 478 kts | 127° |
| 2026-05-04 02:08 | 41.00420 | 20.14473 | 41188 ft | 479 kts | 127° |
| 2026-05-04 02:09 | 40.96193 | 20.21262 | 41232 ft | 477 kts | 127° |
| 2026-05-04 02:09 | 40.91921 | 20.28002 | 41275 ft | 479 kts | 128° |
| 2026-05-04 02:10 | 40.87583 | 20.34687 | 41283 ft | 478 kts | 128° |
| 2026-05-04 02:10 | 40.83260 | 20.41292 | 41280 ft | 477 kts | 128° |
| 2026-05-04 02:11 | 40.78957 | 20.47848 | 41297 ft | 472 kts | 128° |
| 2026-05-04 02:11 | 40.74670 | 20.54411 | 41309 ft | 474 kts | 128° |
| 2026-05-04 02:12 | 40.70372 | 20.61058 | 41314 ft | 478 kts | 128° |
| 2026-05-04 02:12 | 40.66032 | 20.67732 | 41321 ft | 479 kts | 128° |
| 2026-05-04 02:13 | 40.61726 | 20.74418 | 41323 ft | 479 kts | 127° |
| 2026-05-04 02:13 | 40.57414 | 20.81118 | 41328 ft | 479 kts | 128° |
| 2026-05-04 02:14 | 40.53106 | 20.87786 | 41330 ft | 478 kts | 128° |
| 2026-05-04 02:14 | 40.48808 | 20.94440 | 41331 ft | 478 kts | 128° |
| 2026-05-04 02:15 | 40.45129 | 21.01637 | 41333 ft | 474 kts | 114° |
| 2026-05-04 02:15 | 40.42160 | 21.09353 | 41333 ft | 475 kts | 115° |
| 2026-05-04 02:16 | 40.39337 | 21.15554 | 41331 ft | 478 kts | 121° |
| 2026-05-04 02:16 | 40.35385 | 21.22602 | 41332 ft | 480 kts | 126° |
| 2026-05-04 02:17 | 40.31181 | 21.29364 | 41338 ft | 473 kts | 127° |
| 2026-05-04 02:17 | 40.27058 | 21.35968 | 41324 ft | 467 kts | 126° |
| 2026-05-04 02:18 | 40.23026 | 21.42673 | 41273 ft | 468 kts | 125° |
| 2026-05-04 02:18 | 40.19073 | 21.49439 | 41266 ft | 470 kts | 125° |
| 2026-05-04 02:19 | 40.15074 | 21.56287 | 41274 ft | 476 kts | 125° |
| 2026-05-04 02:19 | 40.11041 | 21.63179 | 41245 ft | 478 kts | 125° |
| 2026-05-04 02:20 | 40.07009 | 21.70056 | 41232 ft | 476 kts | 125° |
| 2026-05-04 02:20 | 40.03001 | 21.76921 | 41226 ft | 475 kts | 125° |
| 2026-05-04 02:21 | 39.99082 | 21.83824 | 41221 ft | 473 kts | 124° |
| 2026-05-04 02:21 | 39.95179 | 21.90722 | 41221 ft | 473 kts | 124° |
| 2026-05-04 02:22 | 39.91260 | 21.97621 | 41220 ft | 474 kts | 124° |
| 2026-05-04 02:22 | 39.87331 | 22.04525 | 41216 ft | 475 kts | 124° |
| 2026-05-04 02:23 | 39.85365 | 22.07977 | 41211 ft | 475 kts | 124° |
| 2026-05-04 02:23 | 39.79495 | 22.18275 | 41210 ft | 472 kts | 124° |
| 2026-05-04 02:24 | 39.75596 | 22.25119 | 41212 ft | 471 kts | 124° |
| 2026-05-04 02:24 | 39.71714 | 22.32008 | 41206 ft | 474 kts | 124° |
| 2026-05-04 02:25 | 39.67822 | 22.38941 | 41201 ft | 476 kts | 124° |
| 2026-05-04 02:25 | 39.63929 | 22.45874 | 41200 ft | 475 kts | 124° |
| 2026-05-04 02:26 | 39.60007 | 22.52761 | 41200 ft | 474 kts | 125° |
| 2026-05-04 02:26 | 39.56047 | 22.59606 | 41199 ft | 475 kts | 125° |
| 2026-05-04 02:27 | 39.52074 | 22.66439 | 41199 ft | 475 kts | 125° |
| 2026-05-04 02:27 | 39.48096 | 22.73271 | 41199 ft | 475 kts | 125° |
| 2026-05-04 02:28 | 39.44117 | 22.80096 | 41199 ft | 475 kts | 125° |
| 2026-05-04 02:28 | 39.40139 | 22.86915 | 41199 ft | 475 kts | 125° |
| 2026-05-04 02:29 | 39.36163 | 22.93724 | 41200 ft | 475 kts | 125° |
| 2026-05-04 02:29 | 39.32185 | 23.00531 | 41203 ft | 474 kts | 125° |
| 2026-05-04 02:30 | 39.28250 | 23.07261 | 41199 ft | 472 kts | 125° |
| 2026-05-04 02:30 | 39.24291 | 23.14031 | 41199 ft | 473 kts | 125° |
| 2026-05-04 02:31 | 39.20349 | 23.20885 | 41199 ft | 480 kts | 125° |
| 2026-05-04 02:31 | 39.16333 | 23.27807 | 41167 ft | 481 kts | 125° |
| 2026-05-04 02:32 | 39.14349 | 23.31225 | 40942 ft | 472 kts | 125° |
| 2026-05-04 02:32 | 39.12400 | 23.34584 | 40681 ft | 464 kts | 125° |
| 2026-05-04 02:32 | 39.10468 | 23.37878 | 40427 ft | 463 kts | 125° |
| 2026-05-04 02:32 | 39.08496 | 23.41221 | 40184 ft | 475 kts | 125° |
| 2026-05-04 02:33 | 39.06476 | 23.44636 | 39942 ft | 484 kts | 125° |
| 2026-05-04 02:33 | 39.04435 | 23.48072 | 39695 ft | 483 kts | 125° |
| 2026-05-04 02:33 | 39.02393 | 23.51494 | 39442 ft | 481 kts | 125° |
| 2026-05-04 02:33 | 39.00355 | 23.54897 | 39192 ft | 481 kts | 125° |
| 2026-05-04 02:34 | 38.98313 | 23.58298 | 38942 ft | 481 kts | 126° |
| 2026-05-04 02:34 | 38.96173 | 23.61607 | 38691 ft | 483 kts | 131° |
| 2026-05-04 02:34 | 38.93652 | 23.64462 | 38436 ft | 486 kts | 144° |
| 2026-05-04 02:34 | 38.90691 | 23.66544 | 38186 ft | 487 kts | 158° |
| 2026-05-04 02:35 | 38.87445 | 23.67778 | 37938 ft | 484 kts | 170° |
| 2026-05-04 02:35 | 38.84133 | 23.68337 | 37416 ft | 479 kts | 178° |
| 2026-05-04 02:35 | 38.80795 | 23.68485 | 36529 ft | 483 kts | 182° |
| 2026-05-04 02:35 | 38.77418 | 23.68458 | 35634 ft | 487 kts | 184° |
| 2026-05-04 02:36 | 38.74006 | 23.68448 | 34736 ft | 493 kts | 182° |
| 2026-05-04 02:36 | 38.70562 | 23.68564 | 33848 ft | 498 kts | 181° |
| 2026-05-04 02:36 | 38.67125 | 23.68842 | 32994 ft | 494 kts | 178° |
| 2026-05-04 02:36 | 38.63714 | 23.69267 | 32106 ft | 490 kts | 176° |
| 2026-05-04 02:37 | 38.60339 | 23.69786 | 31208 ft | 487 kts | 175° |
| 2026-05-04 02:37 | 38.56994 | 23.70348 | 30308 ft | 484 kts | 175° |
| 2026-05-04 02:37 | 38.53664 | 23.70928 | 29410 ft | 481 kts | 174° |
| 2026-05-04 02:37 | 38.50334 | 23.71492 | 28609 ft | 483 kts | 175° |
| 2026-05-04 02:38 | 38.47018 | 23.72029 | 28126 ft | 476 kts | 175° |
| 2026-05-04 02:38 | 38.43761 | 23.72537 | 27748 ft | 467 kts | 175° |
| 2026-05-04 02:38 | 38.40559 | 23.73004 | 27259 ft | 461 kts | 176° |
| 2026-05-04 02:38 | 38.37430 | 23.73441 | 26732 ft | 456 kts | 176° |
| 2026-05-04 02:39 | 38.34253 | 23.73878 | 26227 ft | 450 kts | 176° |
| 2026-05-04 02:39 | 38.31164 | 23.74322 | 25767 ft | 444 kts | 175° |
| 2026-05-04 02:39 | 38.28159 | 23.74765 | 25307 ft | 438 kts | 175° |
| 2026-05-04 02:39 | 38.25165 | 23.75211 | 24672 ft | 429 kts | 175° |
| 2026-05-04 02:40 | 38.22230 | 23.75645 | 24000 ft | 421 kts | 176° |
| 2026-05-04 02:40 | 38.19321 | 23.75803 | 23167 ft | 416 kts | 185° |
| 2026-05-04 02:40 | 38.16475 | 23.75326 | 22192 ft | 410 kts | 197° |
| 2026-05-04 02:40 | 38.13788 | 23.74198 | 21144 ft | 405 kts | 208° |
| 2026-05-04 02:41 | 38.11302 | 23.72574 | 20079 ft | 399 kts | 216° |
| 2026-05-04 02:41 | 38.08992 | 23.70659 | 19011 ft | 395 kts | 220° |
| 2026-05-04 02:41 | 38.06791 | 23.68609 | 17939 ft | 391 kts | 221° |
| 2026-05-04 02:41 | 38.04636 | 23.66532 | 16865 ft | 387 kts | 221° |
| 2026-05-04 02:42 | 38.02495 | 23.64497 | 15792 ft | 383 kts | 220° |
| 2026-05-04 02:42 | 38.00344 | 23.62520 | 14715 ft | 379 kts | 219° |
| 2026-05-04 02:42 | 37.98194 | 23.60617 | 13643 ft | 376 kts | 218° |
| 2026-05-04 02:42 | 37.96041 | 23.58767 | 12567 ft | 372 kts | 217° |
| 2026-05-04 02:43 | 37.93893 | 23.56969 | 11492 ft | 368 kts | 217° |
| 2026-05-04 02:43 | 37.91759 | 23.55212 | 10420 ft | 365 kts | 216° |
| 2026-05-04 02:43 | 37.89636 | 23.53482 | 9343 ft | 361 kts | 216° |
| 2026-05-04 02:43 | 37.87373 | 23.52130 | 8239 ft | 362 kts | 199° |
| 2026-05-04 02:44 | 37.84889 | 23.51820 | 7167 ft | 359 kts | 178° |
| 2026-05-04 02:44 | 37.82454 | 23.52321 | 6129 ft | 352 kts | 172° |
| 2026-05-04 02:44 | 37.80032 | 23.52451 | 5057 ft | 345 kts | 182° |
| 2026-05-04 02:44 | 37.77664 | 23.52229 | 3987 ft | 340 kts | 186° |
| 2026-05-04 02:45 | 37.75215 | 23.51851 | 2997 ft | 362 kts | 187° |
| 2026-05-04 02:45 | 37.72761 | 23.51888 | 3045 ft | 351 kts | 174° |
| 2026-05-04 02:45 | 37.70444 | 23.52786 | 3148 ft | 341 kts | 157° |
| 2026-05-04 02:45 | 37.68510 | 23.54209 | 3139 ft | 306 kts | 143° |
| 2026-05-04 02:46 | 37.67234 | 23.56177 | 3085 ft | 280 kts | 119° |
| 2026-05-04 02:46 | 37.66788 | 23.58457 | 3026 ft | 259 kts | 95° |
| 2026-05-04 02:46 | 37.66825 | 23.60639 | 3016 ft | 240 kts | 86° |
| 2026-05-04 02:46 | 37.67066 | 23.62612 | 2987 ft | 215 kts | 77° |
| 2026-05-04 02:47 | 37.67507 | 23.64287 | 3019 ft | 186 kts | 68° |
| 2026-05-04 02:47 | 37.68003 | 23.65657 | 3017 ft | 162 kts | 64° |
| 2026-05-04 02:47 | 37.68479 | 23.66888 | 2973 ft | 153 kts | 63° |
| 2026-05-04 02:47 | 37.68997 | 23.68063 | 3051 ft | 155 kts | 59° |
| 2026-05-04 02:48 | 37.69605 | 23.69197 | 3013 ft | 156 kts | 53° |
| 2026-05-04 02:48 | 37.70275 | 23.70233 | 2997 ft | 151 kts | 47° |
| 2026-05-04 02:48 | 37.71032 | 23.71193 | 3002 ft | 155 kts | 42° |
| 2026-05-04 02:48 | 37.71874 | 23.72050 | 3004 ft | 155 kts | 37° |
| 2026-05-04 02:49 | 37.72736 | 23.72835 | 3000 ft | 155 kts | 34° |
| 2026-05-04 02:49 | 37.73624 | 23.73606 | 3000 ft | 155 kts | 33° |
| 2026-05-04 02:49 | 37.74509 | 23.74382 | 2999 ft | 154 kts | 34° |
| 2026-05-04 02:49 | 37.75349 | 23.75216 | 2971 ft | 150 kts | 38° |
| 2026-05-04 02:50 | 37.76178 | 23.76023 | 2700 ft | 147 kts | 36° |
| 2026-05-04 02:50 | 37.76957 | 23.76815 | 2445 ft | 145 kts | 38° |
| 2026-05-04 02:50 | 37.77770 | 23.77714 | 2252 ft | 174 kts | 40° |
| 2026-05-04 02:50 | 37.78698 | 23.78785 | 2102 ft | 187 kts | 42° |
| 2026-05-04 02:51 | 37.79639 | 23.79907 | 1968 ft | 186 kts | 43° |
| 2026-05-04 02:51 | 37.80541 | 23.80985 | 1883 ft | 168 kts | 43° |
| 2026-05-04 02:51 | 37.81336 | 23.81928 | 1846 ft | 146 kts | 42° |
| 2026-05-04 02:51 | 37.82071 | 23.82783 | 1899 ft | 143 kts | 42° |
| 2026-05-04 02:52 | 37.82817 | 23.83627 | 1897 ft | 143 kts | 40° |
| 2026-05-04 02:52 | 37.83563 | 23.84451 | 1896 ft | 145 kts | 39° |
| 2026-05-04 02:52 | 37.84441 | 23.85225 | 2068 ft | 151 kts | 31° |
| 2026-05-04 02:52 | 37.85366 | 23.85799 | 2178 ft | 148 kts | 24° |
| 2026-05-04 02:53 | 37.86281 | 23.86393 | 2201 ft | 148 kts | 28° |
| 2026-05-04 02:53 | 37.87127 | 23.87143 | 2025 ft | 151 kts | 35° |
| 2026-05-04 02:53 | 37.87983 | 23.87998 | 1734 ft | 160 kts | 38° |
| 2026-05-04 02:53 | 37.88872 | 23.88841 | 1462 ft | 161 kts | 35° |
| 2026-05-04 02:54 | 37.89795 | 23.89685 | 1016 ft | 167 kts | 34° |
| 2026-05-04 02:54 | 37.90732 | 23.90555 | 705 ft | 162 kts | 36° |
| 2026-05-04 02:54 | 37.91595 | 23.91375 | 535 ft | 150 kts | 37° |
| 2026-05-04 02:54 | 37.92410 | 23.92147 | 343 ft | 141 kts | 37° |
| 2026-05-04 02:55 | 37.93578 | 23.93252 | 329 ft | 50 kts | 37° |
| 2026-05-04 02:55 | 37.93773 | 23.93444 | 329 ft | 18 kts | 38° |
| 2026-05-04 02:55 | 37.93813 | 23.93485 | 329 ft | 1 kts | 41° |
| 2026-05-04 02:56 | 37.93856 | 23.93543 | 329 ft | 14 kts | 51° |
| 2026-05-04 02:56 | 37.93908 | 23.93651 | 329 ft | 14 kts | 59° |
| 2026-05-04 02:56 | 37.93956 | 23.93758 | 329 ft | 14 kts | 63° |
| 2026-05-04 02:56 | 37.93993 | 23.93868 | 329 ft | 13 kts | 67° |
| 2026-05-04 02:57 | 37.94041 | 23.93962 | 329 ft | 12 kts | 44° |
| 2026-05-04 02:57 | 37.94105 | 23.94031 | 329 ft | 12 kts | 39° |
| 2026-05-04 02:57 | 37.94176 | 23.94096 | 329 ft | 14 kts | 35° |
| 2026-05-04 02:57 | 37.94261 | 23.94172 | 329 ft | 15 kts | 36° |
| 2026-05-04 02:58 | 37.94349 | 23.94252 | 329 ft | 16 kts | 36° |
| 2026-05-04 02:58 | 37.94438 | 23.94339 | 329 ft | 17 kts | 39° |
| 2026-05-04 02:58 | 37.94530 | 23.94432 | 329 ft | 17 kts | 38° |
| 2026-05-04 02:58 | 37.94629 | 23.94524 | 329 ft | 18 kts | 33° |
| 2026-05-04 02:59 | 37.94671 | 23.94572 | 329 ft | 1 kts | 65° |
| 2026-05-04 02:59 | 37.94676 | 23.94602 | 329 ft | 4 kts | 99° |
| 2026-05-04 02:59 | 37.94657 | 23.94665 | 329 ft | 12 kts | 112° |
| 2026-05-04 02:59 | 37.94597 | 23.94771 | 329 ft | 17 kts | 130° |
| 2026-05-04 03:00 | 37.94525 | 23.94887 | 329 ft | 17 kts | 128° |
| 2026-05-04 03:00 | 37.94455 | 23.95002 | 329 ft | 17 kts | 127° |
| 2026-05-04 03:00 | 37.94393 | 23.95124 | 329 ft | 16 kts | 123° |
| 2026-05-04 03:00 | 37.94326 | 23.95239 | 329 ft | 16 kts | 127° |
| 2026-05-04 03:01 | 37.94258 | 23.95352 | 329 ft | 16 kts | 127° |
| 2026-05-04 03:01 | 37.94196 | 23.95455 | 329 ft | 9 kts | 127° |
| 2026-05-04 03:01 | 37.94175 | 23.95490 | 329 ft | 4 kts | 126° |
| 2026-05-04 03:01 | 37.94150 | 23.95530 | 329 ft | 8 kts | 136° |
| 2026-05-04 03:02 | 37.94099 | 23.95545 | 329 ft | 7 kts | 185° |
| 2026-05-04 03:02 | 37.94062 | 23.95523 | 329 ft | 11 kts | 209° |
| 2026-05-04 03:02 | 37.93960 | 23.95436 | 329 ft | 22 kts | 218° |
| 2026-05-04 03:02 | 37.93829 | 23.95309 | 329 ft | 26 kts | 217° |
| 2026-05-04 03:03 | 37.93719 | 23.95202 | 329 ft | 16 kts | 218° |
| 2026-05-04 03:03 | 37.93702 | 23.95148 | 329 ft | 2 kts | 301° |
| 2026-05-04 03:03 | 37.93728 | 23.95118 | 329 ft | 13 kts | 318° |
| 2026-05-04 03:03 | 37.93758 | 23.95079 | 329 ft | 0 kts | 308° |
| 2026-05-04 03:04 | 37.93776 | 23.95050 | 329 ft | 12 kts | 308° |
| 2026-05-04 03:04 | 37.93790 | 23.95026 | 329 ft | 0 kts | 307° |
| 2026-05-04 03:05 | 45.49759 | 12.34188 | 28 ft | 120 kts | 80° |
| 2026-05-04 03:05 | 45.49806 | 12.34257 | 28 ft | 120 kts | 66° |
| 2026-05-04 03:05 | 37.93790 | 23.95026 | 329 ft | 0 kts | 307° |
| 2026-05-04 03:06 | 37.75894 | 23.75748 | 2792 ft | 148 kts | 37° |
| 2026-05-04 03:06 | 37.76698 | 23.76545 | 2535 ft | 145 kts | 38° |
| 2026-05-04 03:06 | 37.77470 | 23.77376 | 2280 ft | 158 kts | 40° |
| 2026-05-04 03:06 | 37.78378 | 23.78412 | 2172 ft | 186 kts | 41° |
| 2026-05-04 03:07 | 37.79326 | 23.79532 | 2007 ft | 186 kts | 43° |
| 2026-05-04 03:07 | 37.80252 | 23.80642 | 1911 ft | 175 kts | 43° |
| 2026-05-04 03:07 | 37.81082 | 23.81628 | 1856 ft | 153 kts | 42° |
| 2026-05-04 03:07 | 37.81824 | 23.82498 | 1850 ft | 147 kts | 41° |
| 2026-05-04 03:08 | 37.82568 | 23.83348 | 1908 ft | 144 kts | 41° |
| 2026-05-04 03:08 | 37.83315 | 23.84180 | 1892 ft | 143 kts | 40° |
| 2026-05-04 03:08 | 37.84141 | 23.84990 | 2001 ft | 154 kts | 34° |
| 2026-05-04 03:08 | 37.85054 | 23.85621 | 2153 ft | 147 kts | 25° |
| 2026-05-04 03:09 | 37.85990 | 23.86173 | 2212 ft | 148 kts | 25° |
| 2026-05-04 03:09 | 37.86851 | 23.86881 | 2106 ft | 149 kts | 33° |
| 2026-05-04 03:09 | 37.87697 | 23.87705 | 1817 ft | 159 kts | 37° |
| 2026-05-04 03:09 | 37.88571 | 23.88565 | 1586 ft | 159 kts | 37° |
| 2026-05-04 03:10 | 37.89484 | 23.89408 | 1189 ft | 165 kts | 35° |
| 2026-05-04 03:10 | 37.90429 | 23.90271 | 759 ft | 167 kts | 36° |
| 2026-05-04 03:10 | 37.91317 | 23.91110 | 599 ft | 153 kts | 37° |
| 2026-05-04 03:10 | 37.92146 | 23.91891 | 385 ft | 145 kts | 37° |
| 2026-05-04 03:11 | 37.92910 | 23.92619 | 330 ft | 125 kts | 37° |
| 2026-05-04 03:11 | 37.93320 | 23.93007 | 329 ft | 91 kts | 37° |